Time;durP1;ratioP1;P1;durP2;ratioP2;P2;SDS_P1;SDS_P2;PMS_P1;PMS_P2;Temp;Humidity;BMP_temperature;BMP_pressure;BME280_temperature;BME280_humidity;BME280_pressure;Samples;Min_cycle;Max_cycle;Signal;HPM_P1;HPM_P2
2022/07/22 00:00:15;;;;;;;;;;;21.50;61.50;;;20.92;57.02;96357.38;4262650;33;20152;-81
2022/07/22 00:02:44;;;;;;;;;;;21.50;61.50;;;20.91;56.99;96358.53;4261326;33;19909;-80
2022/07/22 00:05:12;;;;;;;;;;;21.50;61.40;;;20.91;57.08;96353.81;4261658;33;19902;-80
2022/07/22 00:07:41;;;;;;;;;;;21.50;61.30;;;20.89;56.99;96356.09;4261806;33;19966;-80
2022/07/22 00:10:11;;;;;;;;;;;21.50;61.30;;;20.90;56.82;96357.72;4237778;33;19961;-81
2022/07/22 00:12:41;;;;;;;;;;;21.50;61.30;;;20.89;57.01;96363.59;4262281;33;20334;-80
2022/07/22 00:15:11;;;;;;;;;;;21.50;61.30;;;20.89;56.98;96358.03;4261798;33;19902;-80
2022/07/22 00:17:39;;;;;;;;;;;21.50;61.30;;;20.89;57.18;96363.59;4261715;33;19924;-80
2022/07/22 00:20:10;;;;;;;;;;;21.50;61.50;;;20.89;57.14;96366.41;4277170;27;19905;-84
2022/07/22 00:22:39;;;;;;;;;;;21.50;61.50;;;20.89;57.17;96369.19;4261970;33;19901;-83
2022/07/22 00:25:08;;;;;;;;;;;21.50;61.50;;;20.88;56.94;96373.09;4285508;33;19909;-83
2022/07/22 00:27:37;;;;;;;;;;;21.50;61.30;;;20.88;56.87;96373.09;4261262;33;20221;-83
2022/07/22 00:30:09;;;;;;;;;;;21.50;61.30;;;20.87;57.09;96377.88;4261324;33;20134;-83
2022/07/22 00:32:37;;;;;;;;;;;21.50;61.40;;;20.87;56.78;96382.59;4261892;33;20080;-82
2022/07/22 00:35:07;;;;;;;;;;;21.50;61.50;;;20.87;57.05;96390.94;4237478;33;19911;-83
2022/07/22 00:37:36;;;;;;;;;;;21.50;62.40;;;20.86;56.97;96392.94;4261349;33;20023;-82
2022/07/22 00:40:06;;;;;;;;;;;21.50;61.50;;;20.85;57.09;96394.88;4262201;33;20142;-83
2022/07/22 00:42:35;;;;;;;;;;;21.40;61.40;;;20.85;56.90;96385.72;4261640;33;20147;-83
2022/07/22 00:45:04;;;;;;;;;;;21.50;61.40;;;20.84;56.93;96389.66;4261341;33;20224;-83
2022/07/22 00:47:34;;;;;;;;;;;21.40;61.20;;;20.83;57.09;96383.28;4237239;33;19980;-83
2022/07/22 00:50:04;;;;;;;;;;;21.40;61.30;;;20.82;56.93;96391.94;4237260;33;20067;-83
2022/07/22 00:52:33;;;;;;;;;;;21.40;61.20;;;20.83;57.07;96390.81;4260672;33;20149;-83
2022/07/22 00:55:01;;;;;;;;;;;21.40;61.20;;;20.82;56.73;96387.22;4261310;33;19901;-82
2022/07/22 00:57:30;;;;;;;;;;;21.40;61.30;;;20.82;57.10;96387.22;4237265;33;19902;-84
2022/07/22 00:59:59;;;;;;;;;;;21.40;61.30;;;20.81;56.92;96390.31;4262066;33;19901;-83
2022/07/22 01:02:27;;;;;;;;;;;21.40;61.30;;;20.78;57.12;96386.25;4261520;33;19902;-83
2022/07/22 01:04:57;;;;;;;;;;;21.40;61.40;;;20.81;56.91;96393.09;4261868;33;20172;-83
2022/07/22 01:07:27;;;;;;;;;;;21.40;61.50;;;20.80;57.21;96385.91;4261949;33;19902;-83
2022/07/22 01:09:55;;;;;;;;;;;21.40;61.50;;;20.81;57.20;96384.75;4262024;33;20285;-84
2022/07/22 01:12:24;;;;;;;;;;;21.40;61.50;;;20.80;56.97;96391.47;4260319;33;19902;-84
2022/07/22 01:14:53;;;;;;;;;;;21.40;61.50;;;20.79;57.16;96384.25;4261064;33;20383;-83
2022/07/22 01:17:21;;;;;;;;;;;21.40;61.60;;;20.78;57.03;96394.59;4236911;33;20346;-84
2022/07/22 01:19:50;;;;;;;;;;;21.40;61.60;;;20.78;57.07;96391.81;4260880;33;19901;-83
2022/07/22 01:22:20;;;;;;;;;;;21.40;61.60;;;20.77;57.23;96390.16;4236647;33;19902;-83
2022/07/22 01:24:49;;;;;;;;;;;21.40;61.80;;;20.76;57.16;96382.97;4261029;33;19908;-83
2022/07/22 01:27:17;;;;;;;;;;;21.40;61.70;;;20.75;57.15;96388.88;4261858;33;19909;-83
2022/07/22 01:29:46;;;;;;;;;;;21.30;61.70;;;20.76;57.12;96387.72;4260954;33;20038;-82
2022/07/22 01:32:15;;;;;;;;;;;21.40;61.60;;;20.75;57.18;96375.78;4236683;33;19998;-83
2022/07/22 01:34:44;;;;;;;;;;;21.30;61.60;;;20.73;57.32;96389.16;4260859;33;19908;-82
2022/07/22 01:37:12;;;;;;;;;;;21.30;61.60;;;20.75;57.22;96388.88;4236934;33;20247;-83
2022/07/22 01:39:42;;;;;;;;;;;21.30;61.70;;;20.74;57.26;96385.22;4261968;33;20121;-83
2022/07/22 01:42:11;;;;;;;;;;;21.30;61.60;;;20.72;57.23;96384.75;4238946;33;20190;-83
2022/07/22 01:44:40;;;;;;;;;;;21.30;61.60;;;20.72;57.01;96381.97;4263365;33;19975;-83
2022/07/22 01:47:10;;;;;;;;;;;21.30;61.60;;;20.71;57.09;96383.13;4263133;33;19909;-83
2022/07/22 01:49:38;;;;;;;;;;;21.30;61.60;;;20.72;57.09;96381.16;4263283;33;20244;-83
2022/07/22 01:52:07;;;;;;;;;;;21.30;61.60;;;20.70;57.30;96389.84;4262601;33;19960;-84
2022/07/22 01:54:37;;;;;;;;;;;21.30;61.60;;;20.70;57.11;96389.84;4239422;33;19902;-83
2022/07/22 01:57:07;;;;;;;;;;;21.30;61.60;;;20.70;57.14;96389.84;4263006;33;20248;-83
2022/07/22 01:59:45;;;;;;;;;;;21.30;61.60;;;20.69;57.13;96391.81;4238932;33;19916;-84
2022/07/22 02:02:14;;;;;;;;;;;21.30;61.60;;;20.70;57.25;96389.84;4262387;33;20266;-83
2022/07/22 02:04:42;;;;;;;;;;;21.30;61.50;;;20.69;57.20;96382.66;4263078;33;20362;-83
2022/07/22 02:07:12;;;;;;;;;;;21.30;61.50;;;20.69;57.03;96382.66;4238637;33;20221;-83
2022/07/22 02:09:41;;;;;;;;;;;21.30;61.50;;;20.69;57.07;96382.66;4239209;33;20109;-83
2022/07/22 02:12:11;;;;;;;;;;;21.30;61.50;;;20.68;57.19;96383.78;4262469;33;19968;-83
2022/07/22 02:14:46;;;;;;;;;;;21.30;61.60;;;20.68;57.19;96386.56;4239127;33;20141;-84
2022/07/22 02:17:14;;;;;;;;;;;21.30;61.70;;;20.66;57.30;96384.13;4262804;33;20132;-84
2022/07/22 02:19:46;;;;;;;;;;;21.30;61.60;;;20.67;57.19;96390.50;4262671;33;20247;-82
2022/07/22 02:22:15;;;;;;;;;;;21.20;61.60;;;20.67;57.14;96384.94;4238522;33;19976;-84
2022/07/22 02:24:43;;;;;;;;;;;21.20;61.60;;;20.66;57.45;96383.31;4262785;33;19909;-83
2022/07/22 02:27:13;;;;;;;;;;;21.20;61.60;;;20.65;57.27;96387.25;4262705;33;20169;-83
2022/07/22 02:29:44;;;;;;;;;;;21.20;61.60;;;20.65;57.22;96387.25;4238837;33;20128;-82
2022/07/22 02:32:12;;;;;;;;;;;21.20;61.70;;;20.64;57.39;96385.59;4238317;33;19909;-83
2022/07/22 02:34:41;;;;;;;;;;;21.20;61.60;;;20.64;57.21;96380.03;4237861;33;19960;-83
2022/07/22 02:37:10;;;;;;;;;;;21.20;61.60;;;20.63;57.29;96381.19;4262999;33;20181;-83
2022/07/22 02:39:38;;;;;;;;;;;21.20;61.50;;;20.62;57.22;96382.34;4262568;33;20159;-83
2022/07/22 02:42:07;;;;;;;;;;;21.20;61.60;;;20.63;57.41;96379.22;4262001;33;19925;-83
2022/07/22 02:44:37;;;;;;;;;;;21.20;61.60;;;20.62;57.22;96385.13;4238561;33;20131;-83
2022/07/22 02:47:06;;;;;;;;;;;21.20;61.60;;;20.61;57.41;96384.31;4262596;33;19956;-83
2022/07/22 02:49:36;;;;;;;;;;;21.20;61.60;;;20.61;57.26;96381.53;4262292;33;19902;-82
2022/07/22 02:52:06;;;;;;;;;;;21.20;61.60;;;20.61;57.32;96386.25;4261916;33;19902;-83
2022/07/22 02:54:35;;;;;;;;;;;21.20;61.60;;;20.60;57.18;96384.63;4262540;33;20148;-83
2022/07/22 02:57:04;;;;;;;;;;;21.20;61.60;;;20.60;57.30;96390.19;4238735;33;20185;-83
2022/07/22 02:59:32;;;;;;;;;;;21.20;61.60;;;20.60;57.46;96395.75;4262372;33;20126;-84
2022/07/22 03:02:02;;;;;;;;;;;21.20;61.70;;;20.59;57.48;96399.69;4262849;33;19902;-83
2022/07/22 03:04:31;;;;;;;;;;;21.20;61.70;;;20.59;57.17;96408.03;4238334;33;19902;-83
2022/07/22 03:07:00;;;;;;;;;;;21.20;61.70;;;20.59;57.22;96405.25;4262221;33;19913;-82
2022/07/22 03:09:30;;;;;;;;;;;21.20;61.60;;;20.58;57.07;96409.19;4262184;33;19902;-84
2022/07/22 03:11:59;;;;;;;;;;;21.20;61.50;;;20.58;57.29;96409.19;4237941;33;19906;-83
2022/07/22 03:14:27;;;;;;;;;;;21.20;61.60;;;20.58;57.34;96410.00;4238379;33;19902;-83
2022/07/22 03:16:57;;;;;;;;;;;21.20;61.70;;;20.58;57.33;96409.19;4238346;33;20217;-82
2022/07/22 03:19:29;;;;;;;;;;;21.20;61.60;;;20.58;57.14;96409.19;4262167;33;20085;-83
2022/07/22 03:21:59;;;;;;;;;;;21.20;61.60;;;20.58;57.16;96415.56;4261591;33;20046;-81
2022/07/22 03:24:27;;;;;;;;;;;21.20;61.60;;;20.58;57.15;96409.19;4262261;33;19902;-82
2022/07/22 03:26:56;;;;;;;;;;;21.20;61.50;;;20.57;57.07;96407.56;4262229;33;20097;-83
2022/07/22 03:29:25;;;;;;;;;;;21.20;61.60;;;20.57;57.01;96405.56;4263075;33;20050;-83
2022/07/22 03:31:53;;;;;;;;;;;21.20;61.50;;;20.59;57.42;96410.84;4261619;33;19908;-83
2022/07/22 03:34:38;;;;;;;;;;;21.20;61.50;;;20.59;56.91;96411.63;4261992;33;20002;-83
2022/07/22 03:37:09;;;;;;;;;;;21.20;61.40;;;20.60;56.98;96412.44;4237955;33;19909;-83
2022/07/22 03:39:38;;;;;;;;;;;21.20;61.40;;;20.60;56.98;96418.00;4261856;33;20135;-82
2022/07/22 03:42:07;;;;;;;;;;;21.20;61.30;;;20.61;56.82;96416.84;4261114;33;19905;-82
2022/07/22 03:44:44;;;;;;;;;;;21.20;61.20;;;20.60;56.82;96406.88;4237937;33;19902;-83
2022/07/22 03:47:12;;;;;;;;;;;21.20;61.00;;;20.63;56.72;96417.34;4238032;33;20235;-83
2022/07/22 03:49:42;;;;;;;;;;;21.20;61.00;;;20.63;56.70;96414.56;4237833;33;19924;-83
2022/07/22 03:52:14;;;;;;;;;;;21.20;61.00;;;20.65;56.51;96415.06;4237325;33;19958;-83
2022/07/22 03:54:43;;;;;;;;;;;21.20;60.70;;;20.66;56.25;96425.03;4237882;33;20136;-83
2022/07/22 03:57:12;;;;;;;;;;;21.30;60.80;;;20.67;56.33;96421.09;4238074;33;19916;-83
2022/07/22 03:59:41;;;;;;;;;;;21.30;60.60;;;20.67;56.30;96419.13;4261512;33;20314;-83
2022/07/22 04:02:09;;;;;;;;;;;21.30;60.40;;;20.69;56.01;96416.84;4236701;33;19909;-83
2022/07/22 04:04:38;;;;;;;;;;;21.30;60.30;;;20.71;55.99;96419.31;4261565;33;19993;-83
2022/07/22 04:07:08;;;;;;;;;;;21.30;60.10;;;20.72;56.03;96425.69;4261473;33;19902;-84
2022/07/22 04:09:38;;;;;;;;;;;21.30;60.00;;;20.74;56.02;96423.38;4261591;33;19908;-83
2022/07/22 04:12:08;;;;;;;;;;;21.40;60.20;;;20.73;56.01;96413.41;4237040;33;19958;-83
2022/07/22 04:14:46;;;;;;;;;;;21.40;60.20;;;20.75;56.11;96425.06;4261454;33;19902;-83
2022/07/22 04:17:15;;;;;;;;;;;21.40;60.40;;;20.76;56.01;96424.72;4261566;33;19902;-83
2022/07/22 04:19:44;;;;;;;;;;;21.40;60.00;;;20.79;55.91;96421.28;4261488;33;20155;-84
2022/07/22 04:22:23;;;;;;;;;;;21.40;60.00;;;20.80;55.84;96422.91;4237078;33;19902;-83
2022/07/22 04:24:52;;;;;;;;;;;21.40;59.90;;;20.82;55.83;96420.59;4262347;33;19909;-83
2022/07/22 04:27:20;;;;;;;;;;;21.40;60.00;;;20.83;55.93;96425.03;4261468;33;20422;-82
2022/07/22 04:29:49;;;;;;;;;;;21.40;60.00;;;20.85;56.06;96431.06;4261346;33;19937;-82
2022/07/22 04:32:18;;;;;;;;;;;21.50;60.20;;;20.88;56.38;96434.31;4236956;33;19902;-82
2022/07/22 04:34:47;;;;;;;;;;;21.50;60.50;;;20.90;56.36;96432.03;4261211;33;19992;-83
2022/07/22 04:37:15;;;;;;;;;;;21.50;60.70;;;20.92;56.62;96429.75;4262236;33;19902;-83
2022/07/22 04:39:45;;;;;;;;;;;21.60;60.90;;;20.92;56.91;96433.31;4261186;33;19901;-83
2022/07/22 04:42:14;;;;;;;;;;;21.60;61.10;;;20.94;57.15;96433.81;4260866;33;19902;-83
2022/07/22 04:44:44;;;;;;;;;;;21.60;61.50;;;20.97;57.20;96440.69;4261331;33;19982;-84
2022/07/22 04:47:13;;;;;;;;;;;21.60;61.50;;;20.99;57.32;96433.66;4237422;33;20129;-83
2022/07/22 04:49:42;;;;;;;;;;;21.60;61.60;;;21.01;57.31;96436.09;4237125;33;20247;-83
2022/07/22 04:52:12;;;;;;;;;;;21.60;61.60;;;21.03;57.64;96432.97;4236735;33;19901;-83
2022/07/22 04:54:48;;;;;;;;;;;21.60;61.80;;;21.05;57.51;96433.44;4261086;33;20385;-82
2022/07/22 04:57:17;;;;;;;;;;;21.70;62.00;;;21.06;57.83;96440.66;4261095;33;20117;-82
2022/07/22 04:59:46;;;;;;;;;;;21.70;62.20;;;21.09;57.95;96435.25;4237120;33;20118;-83
2022/07/22 05:02:15;;;;;;;;;;;21.70;62.40;;;21.11;58.12;96435.72;4236948;33;20200;-82
2022/07/22 05:04:44;;;;;;;;;;;21.70;62.40;;;21.13;57.95;96440.97;4237245;33;19985;-83
2022/07/22 05:07:13;;;;;;;;;;;21.70;62.40;;;21.15;58.07;96445.03;4261231;33;20137;-83
2022/07/22 05:09:42;;;;;;;;;;;21.80;62.40;;;21.17;57.93;96441.94;4261134;33;20125;-83
2022/07/22 05:12:14;;;;;;;;;;;21.80;62.30;;;21.18;58.00;96439.97;4236747;33;20154;-84
2022/07/22 05:14:43;;;;;;;;;;;21.80;62.30;;;21.20;57.89;96451.59;4262205;33;19905;-84
2022/07/22 05:17:12;;;;;;;;;;;21.80;62.30;;;21.20;57.64;96446.00;4263520;33;19902;-83
2022/07/22 05:19:48;;;;;;;;;;;21.80;61.80;;;21.21;57.56;96444.88;4263121;33;19909;-83
2022/07/22 05:22:17;;;;;;;;;;;21.80;61.80;;;21.21;57.68;96447.66;4262982;33;20580;-83
2022/07/22 05:24:46;;;;;;;;;;;21.80;61.90;;;21.22;57.31;96449.28;4263215;33;19910;-83
2022/07/22 05:27:16;;;;;;;;;;;21.80;61.60;;;21.22;57.77;96449.28;4239563;33;20137;-82
2022/07/22 05:29:45;;;;;;;;;;;21.80;62.00;;;21.22;57.63;96450.09;4262999;33;19902;-83
2022/07/22 05:32:13;;;;;;;;;;;21.80;62.00;;;21.21;57.07;96447.66;4238878;33;19902;-83
2022/07/22 05:34:42;;;;;;;;;;;21.90;61.70;;;21.22;57.34;96450.09;4239323;33;19909;-84
2022/07/22 05:37:11;;;;;;;;;;;21.90;61.40;;;21.24;57.07;96453.34;4263209;33;20236;-83
2022/07/22 05:39:39;;;;;;;;;;;21.90;61.30;;;21.24;57.18;96449.75;4262994;33;19902;-83
2022/07/22 05:42:09;;;;;;;;;;;21.90;61.30;;;21.26;57.04;96442.72;4262793;33;20114;-83
2022/07/22 05:44:42;;;;;;;;;;;21.90;61.30;;;21.27;56.93;96452.69;4263123;33;19947;-84
2022/07/22 05:59:07;;;;;;;;;;;21.90;60.90;;;21.41;56.92;96446.88;4341319;32;19901;-78
2022/07/22 06:01:36;;;;;;;;;;;22.00;61.30;;;21.44;57.15;96453.75;4217864;28;2177997;-83
2022/07/22 06:04:17;;;;;;;;;;;22.10;61.70;;;21.47;57.07;96458.66;4221033;33;19909;-83
2022/07/22 06:06:45;;;;;;;;;;;22.10;61.60;;;21.50;57.08;96463.56;4220904;33;19902;-83
2022/07/22 06:09:14;;;;;;;;;;;22.10;61.70;;;21.53;57.44;96467.63;4244175;33;19909;-84
2022/07/22 06:11:43;;;;;;;;;;;22.10;61.70;;;21.54;56.96;96460.91;4220980;33;20117;-84
2022/07/22 06:14:13;;;;;;;;;;;22.10;61.50;;;21.57;57.20;96463.03;4245444;33;19902;-84
2022/07/22 06:16:42;;;;;;;;;;;22.10;61.80;;;21.57;57.27;96465.81;4220810;33;19902;-83
2022/07/22 06:19:10;;;;;;;;;;;22.20;61.70;;;21.58;56.98;96461.88;4243722;33;19915;-84
2022/07/22 06:21:39;;;;;;;;;;;22.20;61.60;;;21.59;56.98;96452.38;4220928;33;20150;-84
2022/07/22 06:24:09;;;;;;;;;;;22.20;61.40;;;21.60;57.27;96456.81;4244303;33;20149;-84
2022/07/22 06:26:38;;;;;;;;;;;22.20;61.50;;;21.60;57.10;96463.19;4239713;33;20171;-84
2022/07/22 06:29:07;;;;;;;;;;;22.20;61.50;;;21.63;56.84;96463.69;4215626;33;19903;-83
2022/07/22 06:31:37;;;;;;;;;;;22.20;61.40;;;21.64;56.97;96456.97;4216117;33;20415;-84
2022/07/22 06:34:05;;;;;;;;;;;22.20;61.40;;;21.64;56.85;96449.41;4216107;33;19910;-83
2022/07/22 06:36:47;;;;;;;;;;;22.20;61.30;;;21.66;56.91;96452.69;4215897;33;19903;-84
2022/07/22 06:39:15;;;;;;;;;;;22.30;61.30;;;21.66;57.00;96447.09;4191938;33;20133;-84
2022/07/22 06:42:02;;;;;;;;;;;22.30;61.30;;;21.67;56.90;96454.31;4234074;33;19902;-84
2022/07/22 06:44:49;;;;;;;;;;;22.30;61.40;;;21.68;56.88;96449.56;4245159;33;19986;-84
2022/07/22 06:47:42;;;;;;;;;;;22.30;61.50;;;21.70;57.10;96450.84;4244609;33;19902;-84
2022/07/22 06:50:13;;;;;;;;;;;22.30;61.40;;;21.71;57.10;96455.28;4244141;33;20052;-84
2022/07/22 06:52:43;;;;;;;;;;;22.30;61.40;;;21.74;56.97;96451.00;4244059;33;19903;-84
2022/07/22 06:55:12;;;;;;;;;;;22.30;61.30;;;21.76;56.65;96457.06;4244168;33;20083;-84
2022/07/22 07:00:57;;;;;;;;;;;22.30;61.10;;;21.82;56.56;96449.31;4234484;33;20020;-83
2022/07/22 07:03:35;;;;;;;;;;;22.40;61.00;;;21.83;56.74;96457.31;4234527;33;20009;-84
2022/07/22 07:06:08;;;;;;;;;;;22.40;61.00;;;21.86;56.30;96455.84;4234597;33;20121;-82
2022/07/22 07:08:57;;;;;;;;;;;22.40;60.90;;;21.89;56.43;96455.16;4210550;33;19902;-83
2022/07/22 07:11:26;;;;;;;;;;;22.40;60.90;;;21.91;56.33;96450.06;4210955;33;19915;-84
2022/07/22 07:13:55;;;;;;;;;;;22.50;61.00;;;21.93;56.18;96444.97;4210885;33;20129;-84
2022/07/22 07:16:24;;;;;;;;;;;22.50;60.80;;;21.96;56.24;96443.47;4210989;33;20005;-83
2022/07/22 07:18:54;;;;;;;;;;;22.50;60.80;;;21.97;56.24;96448.72;4233970;33;19902;-83
2022/07/22 07:21:23;;;;;;;;;;;22.50;60.60;;;21.99;55.99;96451.16;4210883;33;20440;-83
2022/07/22 07:23:51;;;;;;;;;;;22.50;60.60;;;22.01;56.13;96446.88;4234230;33;19909;-83
2022/07/22 07:26:21;;;;;;;;;;;22.60;60.40;;;22.02;55.76;96447.69;4234404;33;19909;-84
2022/07/22 07:28:50;;;;;;;;;;;22.60;60.30;;;22.02;55.72;96445.72;4210098;33;20423;-84
2022/07/22 07:31:32;;;;;;;;;;;22.60;60.20;;;22.03;56.08;96433.41;4210600;33;19925;-84
2022/07/22 07:34:05;;;;;;;;;;;22.60;60.20;;;22.04;55.95;96440.63;4210744;33;20244;-84
2022/07/22 07:36:34;;;;;;;;;;;22.60;60.10;;;22.05;55.94;96442.25;4234313;33;19999;-85
2022/07/22 07:39:03;;;;;;;;;;;22.60;60.10;;;22.05;55.97;96438.66;4233636;33;19903;-85
2022/07/22 07:41:31;;;;;;;;;;;22.60;60.10;;;22.06;55.80;96432.72;4210525;33;19902;-83
2022/07/22 07:44:00;;;;;;;;;;;22.60;60.10;;;22.07;55.79;96439.94;4210479;33;20071;-84
2022/07/22 07:46:29;;;;;;;;;;;22.60;60.10;;;22.07;55.64;96442.72;4234116;33;20221;-84
2022/07/22 07:48:58;;;;;;;;;;;22.60;60.10;;;22.09;55.84;96449.94;4233427;33;19909;-84
2022/07/22 07:51:28;;;;;;;;;;;22.60;60.00;;;22.07;55.84;96451.09;4210454;33;19902;-84
2022/07/22 07:53:57;;;;;;;;;;;22.60;60.10;;;22.09;55.73;96441.56;4234950;33;19903;-84
2022/07/22 07:56:26;;;;;;;;;;;22.70;60.20;;;22.10;55.98;96449.59;4210440;33;19902;-85
2022/07/22 07:59:03;;;;;;;;;;;22.60;60.00;;;22.11;55.69;96442.06;4233278;33;19909;-83
2022/07/22 08:01:32;;;;;;;;;;;22.60;60.00;;;22.11;55.73;96445.66;4210282;33;19903;-85
2022/07/22 08:04:01;;;;;;;;;;;22.70;60.00;;;22.12;55.88;96452.06;4233944;33;19902;-83
2022/07/22 08:06:31;;;;;;;;;;;22.70;60.20;;;22.12;55.99;96440.91;4210400;33;19909;-83
2022/07/22 08:09:00;;;;;;;;;;;22.70;60.20;;;22.12;56.25;96440.91;4233336;33;20294;-84
2022/07/22 08:11:40;;;;;;;;;;;22.70;60.10;;;22.13;55.90;96445.31;4233171;33;19903;-84
2022/07/22 08:14:28;;;;;;;;;;;22.70;60.00;;;22.13;55.80;96448.13;4210274;33;19909;-84
2022/07/22 08:17:15;;;;;;;;;;;22.70;60.00;;;22.13;55.71;96442.53;4234805;33;19902;-84
2022/07/22 08:19:44;;;;;;;;;;;22.70;60.10;;;22.13;55.69;96448.91;4233151;33;20157;-84
2022/07/22 08:22:14;;;;;;;;;;;22.70;60.00;;;22.13;55.62;96448.13;4234645;33;20312;-83
2022/07/22 08:24:44;;;;;;;;;;;22.70;60.10;;;22.12;55.91;96452.06;4233765;33;20086;-84
2022/07/22 08:27:17;;;;;;;;;;;22.70;60.10;;;22.11;55.71;96439.28;4210053;33;19902;-84
2022/07/22 08:29:46;;;;;;;;;;;22.70;60.10;;;22.11;55.73;96447.63;4209520;33;19902;-83
2022/07/22 08:32:15;;;;;;;;;;;22.70;60.10;;;22.10;55.95;96443.22;4233600;33;19927;-84
2022/07/22 08:34:44;;;;;;;;;;;22.70;60.10;;;22.07;55.81;96445.53;4233457;33;19925;-84
2022/07/22 08:37:14;;;;;;;;;;;22.60;60.10;;;22.06;56.07;96443.88;4233794;33;19903;-84
2022/07/22 08:40:08;;;;;;;;;;;22.60;60.30;;;22.05;56.09;96441.44;4209426;33;20244;-84
2022/07/22 08:43:08;;;;;;;;;;;22.60;60.40;;;22.03;56.34;96447.34;4233463;33;19933;-84
2022/07/22 08:45:40;;;;;;;;;;;22.60;60.40;;;22.02;56.00;96440.13;4233614;33;19910;-84
2022/07/22 08:48:08;;;;;;;;;;;22.60;60.40;;;22.00;56.20;96442.47;4233018;33;19951;-84
2022/07/22 08:50:43;;;;;;;;;;;22.60;60.40;;;22.00;56.11;96447.22;4234389;33;20061;-84
2022/07/22 08:53:36;;;;;;;;;;;22.60;60.40;;;22.00;56.11;96442.47;4194904;33;20019;-85
2022/07/22 08:56:13;;;;;;;;;;;22.60;60.50;;;21.99;56.08;96443.63;4233426;33;19925;-84
2022/07/22 08:58:41;;;;;;;;;;;22.60;60.50;;;21.98;56.15;96439.19;4209645;33;19902;-84
2022/07/22 09:01:12;;;;;;;;;;;22.60;60.60;;;21.97;56.33;96443.16;4209929;33;19902;-84
2022/07/22 09:03:49;;;;;;;;;;;22.60;60.60;;;21.96;56.56;96437.88;4210160;33;20062;-85
2022/07/22 09:06:19;;;;;;;;;;;22.60;60.60;;;21.97;56.36;96440.34;4209906;33;20125;-85
2022/07/22 09:08:57;;;;;;;;;;;22.60;60.70;;;21.96;56.44;96430.34;4209304;33;20128;-85
2022/07/22 09:11:46;;;;;;;;;;;22.60;60.80;;;21.96;56.64;96444.28;4205007;33;19910;-84
2022/07/22 09:14:45;;;;;;;;;;;22.50;60.80;;;21.95;56.59;96437.09;4233183;33;20184;-84
2022/07/22 09:17:35;;;;;;;;;;;22.60;60.80;;;21.96;56.65;96437.88;4233030;33;19975;-83
2022/07/22 09:20:22;;;;;;;;;;;22.60;60.90;;;21.95;56.51;96433.47;4234069;33;20151;-83
2022/07/22 09:23:11;;;;;;;;;;;22.50;60.80;;;21.95;56.50;96439.03;4234018;33;19903;-84
2022/07/22 09:25:44;;;;;;;;;;;22.60;60.80;;;21.95;56.62;96445.44;4205007;33;20229;-84
2022/07/22 09:28:23;;;;;;;;;;;22.50;60.90;;;21.95;56.62;96439.88;4205505;33;20241;-84
2022/07/22 09:31:24;;;;;;;;;;;22.60;60.80;;;21.94;56.65;96435.44;4204732;33;20166;-84
2022/07/22 09:33:54;;;;;;;;;;;22.60;60.90;;;21.95;56.59;96439.03;4205043;33;19909;-84
2022/07/22 09:36:25;;;;;;;;;;;22.50;60.90;;;21.95;56.52;96450.19;4204894;33;20241;-84
2022/07/22 09:38:56;;;;;;;;;;;22.50;60.80;;;21.94;56.43;96435.44;4204561;33;20154;-83
2022/07/22 09:41:27;;;;;;;;;;;22.60;60.90;;;21.94;56.49;96434.66;4181597;33;20023;-84
2022/07/22 09:43:55;;;;;;;;;;;22.60;60.80;;;21.94;56.40;96438.25;4181703;33;20309;-84
2022/07/22 09:46:36;;;;;;;;;;;22.50;60.80;;;21.94;56.34;96435.44;4181717;33;19902;-85
2022/07/22 09:49:05;;;;;;;;;;;22.50;60.80;;;21.94;56.46;96434.66;4205471;33;20148;-84
2022/07/22 09:51:43;;;;;;;;;;;22.60;60.80;;;21.94;56.31;96435.44;4197535;33;20213;-83
2022/07/22 09:54:22;;;;;;;;;;;22.60;60.80;;;21.93;56.65;96433.81;4234017;33;20323;-84
2022/07/22 09:56:53;;;;;;;;;;;22.60;60.90;;;21.93;56.51;96431.03;4209268;33;19961;-83
2022/07/22 09:59:22;;;;;;;;;;;22.50;60.90;;;21.92;56.75;96419.06;4204134;33;19910;-84
2022/07/22 10:02:00;;;;;;;;;;;22.50;61.00;;;21.92;56.85;96421.03;4181327;33;20336;-84
2022/07/22 10:04:30;;;;;;;;;;;22.50;61.10;;;21.92;56.79;96433.00;4204746;33;20021;-84
2022/07/22 10:07:02;;;;;;;;;;;22.50;60.90;;;21.93;56.64;96422.66;4181424;33;20165;-85
2022/07/22 10:09:36;;;;;;;;;;;22.50;60.90;;;21.92;56.74;96426.59;4208706;33;19909;-84
2022/07/22 10:12:07;;;;;;;;;;;22.50;60.90;;;21.92;56.66;96418.25;4232717;33;19902;-84
2022/07/22 10:14:48;;;;;;;;;;;22.50;60.90;;;21.91;56.48;96416.63;4209368;33;20094;-84
2022/07/22 10:17:17;;;;;;;;;;;22.50;60.90;;;21.92;56.60;96409.88;4232622;33;19902;-84
2022/07/22 10:19:48;;;;;;;;;;;22.50;61.00;;;21.92;56.72;96421.03;4208712;33;20045;-84
2022/07/22 10:22:50;;;;;;;;;;;22.50;60.90;;;21.91;56.60;96414.66;4209124;33;19903;-84
2022/07/22 10:25:19;;;;;;;;;;;22.50;60.90;;;21.91;56.90;96413.81;4209316;33;19903;-84
2022/07/22 10:27:51;;;;;;;;;;;22.50;60.90;;;21.90;56.62;96418.59;4208668;33;20070;-84
2022/07/22 10:30:21;;;;;;;;;;;22.50;60.90;;;21.89;56.63;96411.38;4233579;33;19954;-84
2022/07/22 10:37:40;;;;;;;;;;;22.50;60.90;;;21.89;56.69;96413.34;4205382;33;20021;-84
2022/07/22 10:40:12;;;;;;;;;;;22.50;60.90;;;21.88;56.72;96403.38;4206665;33;20150;-84
2022/07/22 10:43:13;;;;;;;;;;;22.50;60.90;;;21.88;56.52;96411.75;4183473;33;20218;-83
2022/07/22 10:45:46;;;;;;;;;;;22.50;60.90;;;21.88;56.46;96406.16;4206819;33;20143;-83
2022/07/22 10:48:17;;;;;;;;;;;22.50;60.90;;;21.87;56.66;96401.75;4206309;33;19903;-84
2022/07/22 10:50:56;;;;;;;;;;;22.50;60.90;;;21.87;56.74;96407.31;4219519;33;19902;-85
2022/07/22 10:54:20;;;;;;;;;;;22.50;60.90;;;21.86;56.52;96412.06;4234867;33;20400;-85
2022/07/22 10:56:49;;;;;;;;;;;22.50;60.90;;;21.86;56.78;96402.91;4234776;33;19903;-85
2022/07/22 10:59:21;;;;;;;;;;;22.50;60.90;;;21.86;56.55;96394.53;4210794;33;20104;-85
2022/07/22 11:01:52;;;;;;;;;;;22.50;60.90;;;21.86;56.78;96406.50;4235599;33;19902;-84
2022/07/22 11:04:22;;;;;;;;;;;22.50;60.90;;;21.85;56.75;96401.25;4211272;33;19956;-86
2022/07/22 11:07:19;;;;;;;;;;;22.50;61.00;;;21.86;56.62;96400.09;4234728;33;19902;-84
2022/07/22 11:14:25;;;;;;;;;;;22.50;61.10;;;21.84;56.96;96391.28;4212219;33;19902;-84
2022/07/22 11:16:54;;;;;;;;;;;22.40;61.00;;;21.84;56.74;96396.84;4206351;33;19977;-84
2022/07/22 11:19:25;;;;;;;;;;;22.40;61.00;;;21.84;56.56;96391.28;4206035;33;20283;-84
2022/07/22 11:21:55;;;;;;;;;;;22.50;61.00;;;21.84;56.87;96380.13;4207190;33;20129;-83
2022/07/22 11:24:26;;;;;;;;;;;22.50;61.10;;;21.84;56.60;96382.91;4183222;33;20263;-85
2022/07/22 11:26:55;;;;;;;;;;;22.40;61.00;;;21.84;56.74;96385.69;4206294;33;19910;-85
2022/07/22 11:29:29;;;;;;;;;;;22.40;60.80;;;21.83;57.04;96382.06;4206821;33;20026;-84
2022/07/22 11:31:59;;;;;;;;;;;22.50;61.10;;;21.83;56.59;96382.06;4183008;33;20065;-85
2022/07/22 11:34:28;;;;;;;;;;;22.40;61.00;;;21.84;56.66;96380.13;4206403;33;19935;-84
2022/07/22 11:36:57;;;;;;;;;;;22.50;61.10;;;21.84;56.99;96371.75;4182918;33;20122;-84
2022/07/22 11:39:28;;;;;;;;;;;22.50;61.10;;;21.83;56.46;96379.28;4205713;33;19903;-83
2022/07/22 11:41:59;;;;;;;;;;;22.50;61.10;;;21.84;56.65;96374.56;4206279;33;20055;-84
2022/07/22 11:44:30;;;;;;;;;;;22.40;60.90;;;21.84;56.81;96377.34;4206202;33;19945;-84
2022/07/22 11:46:59;;;;;;;;;;;22.50;61.10;;;21.84;56.66;96368.97;4205567;33;19903;-84
2022/07/22 11:50:36;;;;;;;;;;;22.40;61.00;;;21.84;57.11;96374.56;4205550;33;19909;-84
2022/07/22 11:54:19;;;;;;;;;;;22.50;61.10;;;21.84;56.61;96369.78;4182634;33;19973;-83
2022/07/22 11:56:47;;;;;;;;;;;22.40;61.00;;;21.84;56.51;96367.00;4182796;33;19902;-84
2022/07/22 11:59:17;;;;;;;;;;;22.50;60.90;;;21.85;56.54;96365.03;4182371;33;20129;-84
2022/07/22 12:01:48;;;;;;;;;;;22.50;60.90;;;21.86;56.34;96363.88;4182907;33;19902;-83
2022/07/22 12:04:18;;;;;;;;;;;22.50;61.00;;;21.84;56.63;96363.41;4205956;33;19902;-84